Time;durP1;ratioP1;P1;durP2;ratioP2;P2;SDS_P1;SDS_P2;PMS_P1;PMS_P2;Temp;Humidity;BMP_temperature;BMP_pressure;BME280_temperature;BME280_humidity;BME280_pressure;Samples;Min_cycle;Max_cycle;Signal;HPM_P1;HPM_P2
2021/08/31 00:00:22;;;;;;;10.18;8.40;;;;;;;14.78;96.24;101489.81;4971406;28;20049;-88
2021/08/31 00:02:49;;;;;;;10.57;7.40;;;;;;;14.76;96.36;101489.84;4989873;28;20066;-89
2021/08/31 00:05:16;;;;;;;10.45;7.53;;;;;;;14.75;96.36;101493.34;4982183;28;20049;-89
2021/08/31 00:07:43;;;;;;;7.25;6.55;;;;;;;14.75;96.42;101492.50;4979532;28;20046;-89
2021/08/31 00:10:12;;;;;;;7.32;6.63;;;;;;;14.74;96.56;101496.88;4989780;28;20046;-90
2021/08/31 00:12:44;;;;;;;10.48;7.05;;;;;;;14.74;96.58;101488.97;4971204;28;20049;-90
2021/08/31 00:15:12;;;;;;;9.50;7.60;;;;;;;14.72;96.55;101483.72;4973457;28;20043;-88
2021/08/31 00:17:39;;;;;;;8.23;6.80;;;;;;;14.72;96.80;101488.13;4986139;28;21433;-89
2021/08/31 00:20:07;;;;;;;8.07;7.35;;;;;;;14.70;96.66;101477.59;4969880;28;20694;-89
2021/08/31 00:22:38;;;;;;;12.45;7.03;;;;;;;14.70;96.77;101485.50;4957471;28;20627;-88
2021/08/31 00:25:07;;;;;;;8.43;7.25;;;;;;;14.71;96.76;101479.34;4971810;28;20047;-89
2021/08/31 00:27:35;;;;;;;8.95;6.50;;;;;;;14.71;96.91;101483.75;4984873;28;20427;-91
2021/08/31 00:30:02;;;;;;;8.02;6.65;;;;;;;14.72;96.94;101482.88;4964417;28;20179;-89
2021/08/31 00:32:29;;;;;;;7.50;6.60;;;;;;;14.70;96.73;101474.94;4964905;28;20053;-89
2021/08/31 00:34:55;;;;;;;7.45;6.65;;;;;;;14.70;96.65;101480.22;4966771;28;20050;-89
2021/08/31 00:37:22;;;;;;;10.00;7.38;;;;;;;14.69;97.05;101473.22;4970005;28;20046;-90
2021/08/31 00:39:49;;;;;;;8.07;7.28;;;;;;;14.69;97.34;101475.88;4977836;28;20043;-90
2021/08/31 00:42:19;;;;;;;8.05;6.55;;;;;;;14.68;97.14;101481.16;4977551;28;21566;-88
2021/08/31 00:44:46;;;;;;;8.32;7.03;;;;;;;14.66;97.27;101477.66;4968093;28;20054;-89
2021/08/31 00:47:13;;;;;;;7.65;6.25;;;;;;;14.62;97.50;101475.94;4966731;28;20050;-88
2021/08/31 00:49:39;;;;;;;9.75;6.90;;;;;;;14.57;97.77;101478.59;4972268;28;20088;-89
2021/08/31 00:52:07;;;;;;;8.27;7.05;;;;;;;14.52;98.00;101475.16;4971542;28;20042;-88
2021/08/31 00:54:34;;;;;;;6.43;5.75;;;;;;;14.43;98.11;101477.91;4950132;28;20057;-88
2021/08/31 00:57:05;;;;;;;9.15;8.18;;;;;;;14.32;98.65;101478.03;4974386;28;20053;-89
2021/08/31 00:59:33;;;;;;;12.82;8.30;;;;;;;14.24;99.20;101470.22;4950467;28;20941;-89
2021/08/31 01:02:00;;;;;;;8.48;7.53;;;;;;;14.21;99.95;101470.28;4969462;28;20175;-89
2021/08/31 01:04:30;;;;;;;10.02;7.70;;;;;;;14.17;100.00;101466.78;4965049;28;20423;-89
2021/08/31 01:06:59;;;;;;;8.38;6.93;;;;;;;14.14;100.00;101469.44;4965229;28;20161;-90
2021/08/31 01:09:29;;;;;;;9.35;8.30;;;;;;;14.12;100.00;101470.34;4955202;28;20154;-86
2021/08/31 01:11:58;;;;;;;9.15;7.30;;;;;;;14.07;100.00;101471.25;4976893;28;20046;-88
2021/08/31 01:14:26;;;;;;;9.32;7.95;;;;;;;14.03;100.00;101466.06;4971715;28;20474;-89
2021/08/31 01:16:54;;;;;;;8.93;8.02;;;;;;;13.96;100.00;101469.63;4951469;28;20045;-89
2021/08/31 01:19:31;;;;;;;8.80;7.78;;;;;;;13.89;100.00;101472.31;4978532;28;20377;-88
2021/08/31 01:22:08;;;;;;;9.48;7.75;;;;;;;13.81;100.00;101474.16;4982609;28;20069;-90
2021/08/31 01:24:46;;;;;;;11.55;8.35;;;;;;;13.75;100.00;101473.34;4971190;28;20061;-89
2021/08/31 01:27:14;;;;;;;11.25;9.63;;;;;;;13.72;100.00;101468.97;4977718;28;20045;-88
2021/08/31 01:29:44;;;;;;;9.68;8.25;;;;;;;13.69;100.00;101466.38;4951099;28;20061;-89
2021/08/31 01:32:11;;;;;;;11.50;8.25;;;;;;;13.66;100.00;101476.91;4954544;28;20050;-88
2021/08/31 01:34:38;;;;;;;13.15;7.78;;;;;;;13.62;100.00;101483.97;4987119;28;20057;-88
2021/08/31 01:37:10;;;;;;;10.20;9.07;;;;;;;13.60;100.00;101483.13;4962252;28;20054;-89
2021/08/31 01:39:37;;;;;;;10.25;8.98;;;;;;;13.59;100.00;101489.25;4961743;28;20045;-89
2021/08/31 01:42:04;;;;;;;9.65;8.48;;;;;;;13.59;100.00;101485.75;4969896;28;20081;-89
2021/08/31 01:44:31;;;;;;;10.05;8.70;;;;;;;13.61;100.00;101491.88;4972119;28;21109;-89
2021/08/31 01:46:59;;;;;;;9.52;8.50;;;;;;;13.61;100.00;101499.75;4970216;28;21387;-89
2021/08/31 01:49:26;;;;;;;11.57;9.55;;;;;;;13.63;100.00;101504.13;4967532;28;20156;-89
2021/08/31 01:51:53;;;;;;;12.15;9.25;;;;;;;13.67;100.00;101507.63;4940583;28;20275;-89
2021/08/31 01:54:20;;;;;;;11.38;9.35;;;;;;;13.68;100.00;101499.69;4964215;28;20050;-89
2021/08/31 01:56:47;;;;;;;9.60;8.35;;;;;;;13.73;100.00;101503.16;4967059;28;20046;-90
2021/08/31 01:59:14;;;;;;;10.05;8.40;;;;;;;13.78;100.00;101495.25;4967096;28;20077;-89
2021/08/31 02:01:41;;;;;;;14.88;9.13;;;;;;;13.83;100.00;101493.44;4957093;28;20089;-87
2021/08/31 02:04:08;;;;;;;15.15;9.32;;;;;;;13.86;100.00;101493.41;4973112;28;20058;-89
2021/08/31 02:06:35;;;;;;;11.45;8.52;;;;;;;13.87;100.00;101489.91;4968604;28;20038;-89
2021/08/31 02:09:02;;;;;;;10.02;8.98;;;;;;;13.86;100.00;101488.16;4975028;28;20053;-88
2021/08/31 02:11:29;;;;;;;9.02;8.13;;;;;;;13.83;100.00;101488.19;4952955;28;20126;-90
2021/08/31 02:13:56;;;;;;;11.90;10.02;;;;;;;13.77;100.00;101490.88;4974076;28;20150;-89
2021/08/31 02:16:22;;;;;;;12.20;9.63;;;;;;;13.74;100.00;101493.53;4974231;28;20066;-88
2021/08/31 02:18:49;;;;;;;11.18;8.93;;;;;;;13.73;100.00;101494.41;4970214;28;20043;-87
2021/08/31 02:21:16;;;;;;;11.73;8.55;;;;;;;13.77;100.00;101496.13;4979196;28;20053;-87
2021/08/31 02:23:43;;;;;;;12.52;9.00;;;;;;;13.81;100.00;101486.47;4956515;28;20696;-88
2021/08/31 02:26:10;;;;;;;10.43;9.30;;;;;;;13.85;100.00;101489.03;4957911;28;20100;-89
2021/08/31 02:28:37;;;;;;;14.63;10.75;;;;;;;13.91;100.00;101496.00;4992770;28;20125;-89
2021/08/31 02:31:04;;;;;;;11.43;9.00;;;;;;;13.97;100.00;101500.34;4974309;28;20057;-88
2021/08/31 02:33:31;;;;;;;10.40;9.40;;;;;;;14.01;100.00;101502.06;4975937;28;20042;-89
2021/08/31 02:35:58;;;;;;;11.55;8.55;;;;;;;14.04;100.00;101497.63;4969829;28;20782;-89
2021/08/31 02:38:25;;;;;;;13.73;10.65;;;;;;;14.08;100.00;101493.22;4956996;28;20105;-88
2021/08/31 02:40:52;;;;;;;11.73;9.93;;;;;;;14.11;100.00;101495.81;4976154;28;20046;-88
2021/08/31 02:43:19;;;;;;;10.27;9.20;;;;;;;14.12;100.00;101489.66;4985751;28;20109;-88
2021/08/31 02:45:46;;;;;;;13.15;9.43;;;;;;;14.14;100.00;101487.00;4972131;28;20050;-88
2021/08/31 02:48:13;;;;;;;11.32;9.23;;;;;;;14.14;100.00;101484.38;4970655;28;20054;-88
2021/08/31 02:50:39;;;;;;;13.10;9.35;;;;;;;14.12;100.00;101489.66;4973314;28;20038;-88
2021/08/31 02:53:06;;;;;;;10.40;8.50;;;;;;;14.12;100.00;101494.94;4989709;28;22531;-88
2021/08/31 02:55:33;;;;;;;13.35;10.05;;;;;;;14.11;100.00;101493.19;4968644;28;20038;-88
2021/08/31 02:58:00;;;;;;;11.73;9.55;;;;;;;14.11;100.00;101482.66;4979742;28;20047;-88
2021/08/31 03:00:31;;;;;;;10.63;8.63;;;;;;;14.13;100.00;101494.03;4972046;28;20050;-88
2021/08/31 03:02:58;;;;;;;13.25;11.00;;;;;;;14.14;100.00;101494.91;4980554;28;20504;-89
2021/08/31 03:05:29;;;;;;;12.27;9.38;;;;;;;14.14;100.00;101487.00;4970804;28;20043;-89
2021/08/31 03:07:56;;;;;;;13.40;8.93;;;;;;;14.13;100.00;101488.78;4974295;28;20050;-88
2021/08/31 03:10:24;;;;;;;13.48;9.82;;;;;;;14.15;100.00;101481.72;4993611;28;20038;-88
2021/08/31 03:12:50;;;;;;;12.30;9.38;;;;;;;14.16;100.00;101472.06;4964520;28;20035;-89
2021/08/31 03:15:18;;;;;;;11.35;10.15;;;;;;;14.15;100.00;101472.97;4982234;28;20042;-87
2021/08/31 03:17:46;;;;;;;11.15;9.88;;;;;;;14.17;100.00;101484.31;4975635;28;20730;-90
2021/08/31 03:20:13;;;;;;;10.75;9.63;;;;;;;14.17;100.00;101479.06;4959352;28;20124;-88
2021/08/31 03:22:40;;;;;;;14.07;10.55;;;;;;;14.17;100.00;101479.06;4967787;28;20061;-90
2021/08/31 03:25:08;;;;;;;11.52;9.95;;;;;;;14.16;100.00;101472.94;4958169;28;20074;-89
2021/08/31 03:27:35;;;;;;;11.07;8.88;;;;;;;14.15;100.00;101475.59;4992847;28;20050;-89
2021/08/31 03:30:02;;;;;;;11.32;9.95;;;;;;;14.09;100.00;101473.00;4966532;28;20417;-89
2021/08/31 03:32:28;;;;;;;14.23;10.70;;;;;;;14.00;100.00;101477.50;4974295;28;20481;-88
2021/08/31 03:34:55;;;;;;;12.02;9.35;;;;;;;13.89;100.00;101480.22;4968353;28;20121;-89
2021/08/31 03:37:22;;;;;;;12.65;9.65;;;;;;;13.79;100.00;101482.94;4960675;28;20051;-89
2021/08/31 03:39:49;;;;;;;11.98;9.93;;;;;;;13.69;100.00;101484.81;4972965;28;20061;-89
2021/08/31 03:42:16;;;;;;;12.73;9.68;;;;;;;13.64;100.00;101486.59;4956181;28;20513;-89
2021/08/31 03:44:43;;;;;;;11.93;9.70;;;;;;;13.61;100.00;101486.59;4970875;28;20065;-89
2021/08/31 03:47:10;;;;;;;12.02;10.75;;;;;;;13.60;100.00;101498.00;4971441;28;20800;-89
2021/08/31 03:49:37;;;;;;;11.13;9.90;;;;;;;13.59;100.00;101494.53;4957396;28;20613;-89
2021/08/31 03:52:04;;;;;;;11.35;9.10;;;;;;;13.61;100.00;101498.03;4964272;28;20054;-88
2021/08/31 03:54:31;;;;;;;14.95;10.30;;;;;;;13.65;100.00;101505.00;4956897;28;20051;-88
2021/08/31 03:57:01;;;;;;;14.10;11.68;;;;;;;13.66;100.00;101498.88;4976807;28;20042;-88
2021/08/31 03:59:28;;;;;;;11.80;10.63;;;;;;;13.65;100.00;101496.22;4970371;28;20495;-88
2021/08/31 04:01:55;;;;;;;11.98;10.38;;;;;;;13.57;100.00;101491.00;4990144;28;20263;-89
2021/08/31 04:04:22;;;;;;;10.95;9.90;;;;;;;13.47;100.00;101495.50;4960427;28;20104;-89
2021/08/31 04:06:49;;;;;;;16.33;10.80;;;;;;;13.33;100.00;101495.53;4955366;28;20082;-89
2021/08/31 04:09:15;;;;;;;15.95;11.43;;;;;;;13.19;100.00;101495.66;4968144;28;20062;-89
2021/08/31 04:11:42;;;;;;;11.50;10.25;;;;;;;13.08;100.00;101500.09;4989497;28;20035;-89
2021/08/31 04:14:09;;;;;;;14.25;11.05;;;;;;;12.98;100.00;101498.41;4982963;28;20074;-89
2021/08/31 04:16:36;;;;;;;15.32;11.65;;;;;;;12.89;100.00;101502.84;4980001;28;20089;-89
2021/08/31 04:19:05;;;;;;;15.50;11.45;;;;;;;12.84;100.00;101509.88;4951702;28;20077;-89
2021/08/31 04:21:32;;;;;;;15.65;11.77;;;;;;;12.80;100.00;101510.75;4962542;28;20060;-88
2021/08/31 04:23:58;;;;;;;15.43;11.98;;;;;;;12.78;100.00;101515.13;4972940;28;20054;-87
2021/08/31 04:26:30;;;;;;;14.13;11.10;;;;;;;12.79;100.00;101510.75;4969188;28;20046;-88
2021/08/31 04:28:59;;;;;;;11.95;10.40;;;;;;;12.82;100.00;101519.50;4975145;28;20051;-89
2021/08/31 04:31:26;;;;;;;16.52;12.32;;;;;;;12.93;100.00;101519.44;4972001;28;20515;-88
2021/08/31 04:33:53;;;;;;;15.75;12.23;;;;;;;13.04;100.00;101517.63;4968567;28;20165;-90
2021/08/31 04:36:20;;;;;;;13.18;10.43;;;;;;;13.15;100.00;101524.59;4973108;28;20390;-89
2021/08/31 04:38:47;;;;;;;19.88;11.60;;;;;;;13.23;100.00;101526.31;4954097;28;20138;-90
2021/08/31 04:41:15;;;;;;;14.25;10.75;;;;;;;13.29;100.00;101516.63;4971549;28;20054;-87
2021/08/31 04:43:41;;;;;;;14.25;10.18;;;;;;;13.36;100.00;101526.22;4973352;28;20929;-88
2021/08/31 04:46:09;;;;;;;12.50;9.85;;;;;;;13.41;100.00;101529.72;4966972;28;20053;-88
2021/08/31 04:48:38;;;;;;;17.55;10.77;;;;;;;13.44;100.00;101534.09;4955605;28;20054;-88
2021/08/31 04:51:05;;;;;;;12.40;10.32;;;;;;;13.46;100.00;101527.94;4956110;28;20061;-88
2021/08/31 04:53:32;;;;;;;12.02;10.73;;;;;;;13.49;100.00;101529.66;4961677;28;20094;-89
2021/08/31 04:55:59;;;;;;;11.15;9.02;;;;;;;13.49;100.00;101533.19;4964705;28;20046;-89
2021/08/31 04:58:26;;;;;;;12.07;10.20;;;;;;;13.49;100.00;101532.28;4968761;28;20049;-87
2021/08/31 05:00:53;;;;;;;13.18;9.80;;;;;;;13.51;100.00;101528.78;4986050;28;20046;-90
2021/08/31 05:03:19;;;;;;;14.27;11.23;;;;;;;13.53;100.00;101532.28;4982636;28;20145;-88
2021/08/31 05:05:46;;;;;;;21.85;10.65;;;;;;;13.53;100.00;101537.53;4968901;28;20070;-88
2021/08/31 05:08:13;;;;;;;11.65;9.52;;;;;;;13.52;100.00;101527.03;4976153;28;20045;-87
2021/08/31 05:10:40;;;;;;;14.65;10.25;;;;;;;13.49;100.00;101527.03;4969990;28;20034;-88
2021/08/31 05:13:57;;;;;;;12.55;10.07;;;;;;;13.48;100.00;101528.81;4993511;28;20031;-89
2021/08/31 05:16:24;;;;;;;14.73;10.13;;;;;;;13.41;100.00;101532.34;4998335;28;20067;-88
2021/08/31 05:18:51;;;;;;;12.70;9.55;;;;;;;13.31;100.00;101531.50;4995717;28;20072;-88
2021/08/31 05:21:19;;;;;;;16.27;9.43;;;;;;;13.22;100.00;101535.06;4975369;28;20129;-87
2021/08/31 05:23:46;;;;;;;12.10;10.30;;;;;;;13.17;100.00;101541.25;4995742;28;20402;-90
2021/08/31 05:26:13;;;;;;;11.38;9.65;;;;;;;13.09;100.00;101538.66;4962738;28;20038;-89
2021/08/31 05:28:39;;;;;;;15.13;10.00;;;;;;;13.04;100.00;101543.06;4985224;28;20047;-87
2021/08/31 05:31:06;;;;;;;11.10;9.63;;;;;;;12.94;100.00;101539.59;4986723;28;20345;-88
2021/08/31 05:33:33;;;;;;;17.73;12.63;;;;;;;12.85;100.00;101552.75;4966412;28;20038;-88
2021/08/31 05:36:00;;;;;;;13.07;10.77;;;;;;;12.77;100.00;101544.91;4971107;28;20035;-88
2021/08/31 05:38:27;;;;;;;17.58;13.18;;;;;;;12.74;100.00;101550.19;4969062;28;20066;-87
2021/08/31 05:40:55;;;;;;;20.60;11.80;;;;;;;12.71;100.00;101556.31;4970920;28;20174;-89
2021/08/31 05:43:22;;;;;;;17.58;11.88;;;;;;;12.66;100.00;101552.84;4978264;28;20137;-88
2021/08/31 05:45:49;;;;;;;16.88;12.30;;;;;;;12.66;100.00;101560.72;4972903;28;20982;-89
2021/08/31 05:48:16;;;;;;;12.32;10.30;;;;;;;12.64;100.00;101556.34;4974978;28;22238;-88
2021/08/31 05:50:43;;;;;;;15.82;10.88;;;;;;;12.63;100.00;101562.47;4976044;28;20054;-88
2021/08/31 05:53:09;;;;;;;15.68;11.65;;;;;;;12.65;100.00;101561.59;4953748;28;20054;-88
2021/08/31 05:55:39;;;;;;;18.52;12.43;;;;;;;12.66;100.00;101565.97;4961205;28;20129;-87
2021/08/31 05:58:09;;;;;;;18.90;13.02;;;;;;;12.69;100.00;101563.31;4975472;28;20504;-87
2021/08/31 06:00:36;;;;;;;18.38;13.73;;;;;;;12.72;100.00;101567.69;4974140;28;20057;-90
2021/08/31 06:03:03;;;;;;;17.35;12.60;;;;;;;12.74;100.00;101569.44;4973413;28;20043;-89
2021/08/31 06:05:30;;;;;;;17.30;12.85;;;;;;;12.76;100.00;101566.81;4972319;28;20124;-88
2021/08/31 06:08:00;;;;;;;17.73;14.20;;;;;;;12.79;100.00;101566.81;4974936;28;20464;-89
2021/08/31 06:10:27;;;;;;;15.98;12.40;;;;;;;12.85;100.00;101576.41;4970123;28;20053;-88
2021/08/31 06:12:54;;;;;;;15.80;12.43;;;;;;;12.90;100.00;101575.50;4974080;28;20614;-89
2021/08/31 06:15:22;;;;;;;21.92;13.93;;;;;;;12.97;100.00;101579.00;4967607;28;20054;-87
2021/08/31 06:17:49;;;;;;;18.52;13.32;;;;;;;13.03;100.00;101572.84;4972330;28;20576;-88
2021/08/31 06:20:16;;;;;;;17.48;13.82;;;;;;;13.10;100.00;101577.19;4974073;28;20057;-88
2021/08/31 06:22:44;;;;;;;18.90;12.65;;;;;;;13.18;100.00;101578.03;4955298;28;20054;-90
2021/08/31 06:25:11;;;;;;;17.50;12.50;;;;;;;13.26;100.00;101580.63;4979575;28;20096;-88
2021/08/31 06:27:38;;;;;;;19.23;13.98;;;;;;;13.40;100.00;101580.56;4973065;28;20268;-89
2021/08/31 06:30:05;;;;;;;19.45;13.23;;;;;;;13.54;100.00;101583.13;4960475;28;20055;-87
2021/08/31 06:32:32;;;;;;;17.42;13.23;;;;;;;13.65;100.00;101585.66;4959477;28;20081;-87
2021/08/31 06:34:59;;;;;;;15.85;12.70;;;;;;;13.73;100.00;101590.00;4972835;28;20050;-90
2021/08/31 06:37:25;;;;;;;16.42;11.95;;;;;;;13.88;100.00;101590.78;4976189;28;20104;-88
2021/08/31 06:39:54;;;;;;;13.35;11.15;;;;;;;14.04;100.00;101589.78;4976150;28;20042;-88
2021/08/31 06:42:21;;;;;;;16.70;11.70;;;;;;;14.23;100.00;101584.34;4972616;28;20532;-88
2021/08/31 06:44:48;;;;;;;15.98;11.77;;;;;;;14.36;100.00;101587.72;4976049;28;20046;-87
2021/08/31 06:47:15;;;;;;;23.08;12.20;;;;;;;14.53;100.00;101592.84;4985355;28;20046;-87
2021/08/31 06:49:41;;;;;;;17.55;13.30;;;;;;;14.68;100.00;101594.47;4975248;28;20061;-88
2021/08/31 06:52:08;;;;;;;17.13;11.45;;;;;;;14.76;100.00;101589.09;4981020;28;20129;-87
2021/08/31 06:54:35;;;;;;;15.88;11.95;;;;;;;14.91;99.82;101593.34;4970225;28;20047;-90
2021/08/31 06:57:02;;;;;;;13.95;11.32;;;;;;;15.14;99.17;101596.56;4977656;28;20053;-89
2021/08/31 06:59:30;;;;;;;17.13;11.40;;;;;;;15.36;97.56;101594.50;4955704;28;20096;-87
2021/08/31 07:01:56;;;;;;;15.98;12.38;;;;;;;15.58;96.49;101598.59;4972333;28;20498;-87
2021/08/31 07:04:24;;;;;;;15.18;11.00;;;;;;;15.95;95.53;101595.44;4976484;28;20058;-90
2021/08/31 07:06:52;;;;;;;14.85;10.88;;;;;;;16.26;93.80;101597.56;4980551;28;20715;-87
2021/08/31 07:09:22;;;;;;;16.70;11.90;;;;;;;16.32;92.66;101598.31;4958394;28;20135;-88
2021/08/31 07:11:50;;;;;;;14.43;11.98;;;;;;;16.39;91.41;101596.44;4982961;28;20564;-88
2021/08/31 07:14:17;;;;;;;16.30;12.85;;;;;;;16.73;90.78;101594.94;4974727;28;20077;-88
2021/08/31 07:16:43;;;;;;;14.20;11.65;;;;;;;17.11;89.58;101604.75;4951431;28;20141;-88
2021/08/31 07:19:11;;;;;;;16.23;11.68;;;;;;;17.56;87.67;101598.50;4970669;28;20058;-88
2021/08/31 07:21:38;;;;;;;15.90;11.57;;;;;;;18.02;84.77;101605.34;4970327;28;20049;-89
2021/08/31 07:24:05;;;;;;;17.30;11.32;;;;;;;18.14;83.21;101605.97;4972608;28;20049;-87
2021/08/31 07:26:32;;;;;;;13.68;11.00;;;;;;;18.22;82.54;101603.97;4974926;28;20104;-88
2021/08/31 07:28:59;;;;;;;16.48;11.35;;;;;;;18.28;81.01;101608.28;4955212;28;20061;-89
2021/08/31 07:31:28;;;;;;;14.35;10.27;;;;;;;18.31;78.78;101621.44;4972204;28;20165;-88
2021/08/31 07:33:55;;;;;;;18.15;11.18;;;;;;;18.27;80.73;101612.69;4966777;28;20444;-87
2021/08/31 07:36:22;;;;;;;10.88;8.82;;;;;;;18.40;80.32;101615.03;4983543;28;20483;-88
2021/08/31 07:38:50;;;;;;;14.23;11.30;;;;;;;18.80;78.34;101619.25;4957351;28;20043;-88
2021/08/31 07:41:17;;;;;;;17.27;9.95;;;;;;;19.34;75.94;101618.56;4954196;28;20069;-88
2021/08/31 07:43:46;;;;;;;12.27;9.73;;;;;;;19.69;73.95;101613.09;4956566;28;20061;-87
2021/08/31 07:46:13;;;;;;;12.25;9.68;;;;;;;20.06;72.76;101625.19;4959502;28;20050;-87
2021/08/31 07:48:40;;;;;;;14.00;8.82;;;;;;;20.26;71.10;101618.34;4968908;28;20069;-88
2021/08/31 07:51:10;;;;;;;13.05;8.98;;;;;;;20.50;69.95;101619.28;4969768;28;20511;-89
2021/08/31 07:53:37;;;;;;;9.73;8.10;;;;;;;20.60;68.51;101625.16;4969244;28;20413;-88
2021/08/31 07:56:04;;;;;;;11.48;9.93;;;;;;;20.84;67.16;101630.56;4970304;28;20046;-88
2021/08/31 07:58:33;;;;;;;10.73;8.60;;;;;;;21.02;66.10;101624.53;4966574;28;20086;-88
2021/08/31 08:01:01;;;;;;;11.35;8.52;;;;;;;21.08;65.20;101626.09;4964688;28;20700;-89
2021/08/31 08:03:48;;;;;;;11.73;8.82;;;;;;;21.13;64.51;101630.34;4970040;28;20046;-88
2021/08/31 08:09:25;;;;;;;10.98;9.00;;;;;;;21.50;63.22;101638.72;4974891;28;20049;-88
2021/08/31 08:15:21;;;;;;;11.10;9.73;;;;;;;21.54;62.05;101634.13;4970920;28;20061;-87
2021/08/31 08:20:55;;;;;;;10.07;9.15;;;;;;;21.53;61.06;101621.75;4970356;28;20058;-87
2021/08/31 08:23:40;;;;;;;8.25;7.45;;;;;;;21.77;60.48;101628.78;4996406;28;20103;-91
2021/08/31 08:26:16;;;;;;;8.50;6.85;;;;;;;22.16;57.54;101631.66;4984601;28;22049;-89
2021/08/31 08:28:49;;;;;;;7.47;6.53;;;;;;;22.71;57.51;101634.63;4973534;28;20052;-88
2021/08/31 08:31:18;;;;;;;9.65;6.18;;;;;;;23.23;55.51;101635.88;4970535;28;20794;-88
2021/08/31 08:33:45;;;;;;;11.98;8.07;;;;;;;23.64;54.29;101629.53;4959956;28;20458;-89
2021/08/31 08:36:12;;;;;;;8.30;7.32;;;;;;;24.05;53.50;101629.31;4968660;28;20125;-88
2021/08/31 08:38:39;;;;;;;8.43;7.50;;;;;;;24.37;52.71;101625.00;4958575;28;20848;-90
2021/08/31 08:41:08;;;;;;;7.20;6.50;;;;;;;24.56;52.11;101627.59;4965848;28;20049;-88
2021/08/31 08:43:43;;;;;;;9.50;8.27;;;;;;;24.74;50.64;101628.47;4968367;28;20760;-89
2021/08/31 08:46:19;;;;;;;7.97;7.05;;;;;;;24.84;51.11;101622.59;4970703;28;20042;-90
2021/08/31 08:48:49;;;;;;;9.57;8.38;;;;;;;24.76;49.88;101625.69;4970349;28;20042;-87
2021/08/31 08:51:15;;;;;;;7.57;6.88;;;;;;;24.67;49.03;101626.19;4966697;28;20092;-87
2021/08/31 08:53:43;;;;;;;8.50;7.07;;;;;;;24.96;49.39;101629.13;4983358;28;20062;-91
2021/08/31 08:56:11;;;;;;;9.00;8.18;;;;;;;24.87;48.82;101630.47;4965100;28;20050;-92
2021/08/31 08:58:38;;;;;;;8.00;6.80;;;;;;;25.16;48.33;101631.56;4975250;28;20105;-89
2021/08/31 09:01:10;;;;;;;7.72;7.03;;;;;;;25.57;48.22;101627.53;4996037;28;20061;-89
2021/08/31 09:03:52;;;;;;;6.70;6.10;;;;;;;26.20;46.28;101631.94;4976163;28;20116;-89
2021/08/31 09:06:22;;;;;;;6.18;5.57;;;;;;;26.67;45.18;101630.00;4961574;28;20417;-89
2021/08/31 09:08:54;;;;;;;6.55;5.47;;;;;;;27.11;44.07;101638.97;4985213;28;20061;-88
2021/08/31 09:11:37;;;;;;;6.80;5.95;;;;;;;27.43;42.62;101640.59;4972792;28;20041;-88
2021/08/31 09:14:32;;;;;;;6.18;5.43;;;;;;;27.97;41.81;101632.53;4957324;28;20343;-88
2021/08/31 09:17:07;;;;;;;6.57;5.45;;;;;;;28.46;41.19;101635.56;4980415;28;20043;-88
2021/08/31 09:19:40;;;;;;;5.70;5.15;;;;;;;28.40;40.17;101634.16;4974901;28;21193;-89
2021/08/31 09:22:26;;;;;;;7.63;6.32;;;;;;;28.45;39.49;101632.00;4969029;28;20097;-90
2021/08/31 09:25:12;;;;;;;7.10;6.40;;;;;;;28.62;40.02;101628.13;4967977;28;20074;-89
2021/08/31 09:27:50;;;;;;;5.95;5.35;;;;;;;28.92;39.55;101623.44;4946367;28;20054;-91
2021/08/31 09:30:24;;;;;;;7.00;5.85;;;;;;;29.30;39.22;101627.91;4969048;28;20058;-88
2021/08/31 09:33:07;;;;;;;8.00;6.13;;;;;;;29.67;37.63;101630.56;4963868;28;20080;-85
2021/08/31 09:35:36;;;;;;;6.32;4.65;;;;;;;29.44;37.79;101626.88;4948021;28;20058;-87
2021/08/31 09:38:10;;;;;;;5.63;5.13;;;;;;;28.56;38.10;101633.94;4990499;28;20046;-89
2021/08/31 09:40:48;;;;;;;5.55;4.78;;;;;;;28.60;39.14;101638.16;4969137;28;20909;-86
2021/08/31 09:43:18;;;;;;;5.32;4.93;;;;;;;28.97;38.65;101640.97;4964271;28;20502;-89
2021/08/31 09:45:48;;;;;;;4.85;4.43;;;;;;;29.62;37.56;101633.63;4972438;28;20126;-90
2021/08/31 09:48:20;;;;;;;6.82;5.32;;;;;;;29.85;37.02;101631.84;4971141;28;20042;-90
2021/08/31 09:50:58;;;;;;;5.97;5.43;;;;;;;30.26;36.67;101632.44;4991170;28;20053;-91
2021/08/31 09:53:31;;;;;;;5.60;5.10;;;;;;;30.96;35.64;101637.81;4973402;28;20105;-89
2021/08/31 09:56:03;;;;;;;4.35;3.95;;;;;;;31.24;33.17;101631.06;4945803;28;20545;-87
2021/08/31 09:58:32;;;;;;;5.65;4.25;;;;;;;31.27;34.11;101643.47;4970828;28;20366;-89
2021/08/31 10:00:59;;;;;;;6.40;4.68;;;;;;;31.22;32.86;101632.19;4975215;28;20077;-89
2021/08/31 10:03:33;;;;;;;5.78;4.18;;;;;;;31.26;33.83;101637.19;4973296;28;20042;-88
2021/08/31 10:06:02;;;;;;;5.32;4.45;;;;;;;31.29;33.90;101636.97;4968043;28;20050;-87
2021/08/31 10:08:35;;;;;;;4.43;4.13;;;;;;;31.65;32.87;101634.94;4967388;28;20050;-88
2021/08/31 10:11:05;;;;;;;4.60;4.07;;;;;;;32.03;31.63;101631.81;4965689;28;20573;-87
2021/08/31 10:13:50;;;;;;;6.13;4.05;;;;;;;31.96;32.69;101623.38;4971468;28;20153;-90
2021/08/31 10:16:35;;;;;;;4.53;4.10;;;;;;;32.35;32.89;101631.81;4965371;28;20043;-86
2021/08/31 10:19:02;;;;;;;5.05;4.60;;;;;;;32.51;31.81;101625.91;4955559;28;20034;-86
2021/08/31 10:21:30;;;;;;;4.88;4.50;;;;;;;32.75;31.65;101622.94;4973311;28;20049;-87
2021/08/31 10:24:03;;;;;;;5.45;4.53;;;;;;;33.18;30.68;101620.06;4968695;28;20114;-90
2021/08/31 10:26:40;;;;;;;5.25;4.75;;;;;;;33.17;30.76;101615.63;4972630;28;20073;-89
2021/08/31 10:29:16;;;;;;;5.32;4.93;;;;;;;33.42;30.80;101617.03;4960407;28;20046;-91
2021/08/31 10:31:46;;;;;;;4.82;4.43;;;;;;;33.26;31.18;101620.25;4969683;28;20057;-89
2021/08/31 10:34:32;;;;;;;5.75;5.20;;;;;;;33.61;29.93;101621.59;4977661;28;20121;-91
2021/08/31 10:37:15;;;;;;;5.43;4.88;;;;;;;33.61;30.33;101619.75;4973832;28;20034;-89
2021/08/31 10:39:58;;;;;;;4.57;4.18;;;;;;;33.03;30.56;101614.19;4957619;28;20055;-90
2021/08/31 10:42:25;;;;;;;5.72;5.22;;;;;;;33.14;30.88;101624.91;4980242;28;20134;-91
2021/08/31 10:45:00;;;;;;;4.97;4.57;;;;;;;33.77;30.44;101621.06;4975372;28;20053;-89
2021/08/31 10:47:33;;;;;;;4.72;3.83;;;;;;;34.44;29.41;101629.31;4956222;28;20077;-85
2021/08/31 10:49:59;;;;;;;6.57;4.07;;;;;;;34.88;28.23;101626.03;4977028;28;20050;-87
2021/08/31 10:52:44;;;;;;;4.13;3.83;;;;;;;34.98;26.89;101617.81;4971477;28;20055;-88
2021/08/31 10:55:33;;;;;;;4.45;4.03;;;;;;;35.24;26.67;101623.41;4975760;28;20125;-88
2021/08/31 10:58:16;;;;;;;3.92;3.60;;;;;;;35.65;26.20;101623.03;4955852;28;20068;-87
2021/08/31 11:00:43;;;;;;;3.65;3.35;;;;;;;36.24;25.88;101623.34;4969824;28;20131;-88
2021/08/31 11:03:10;;;;;;;4.22;3.90;;;;;;;36.50;25.08;101619.81;4974905;28;20093;-90
2021/08/31 11:05:37;;;;;;;3.47;3.17;;;;;;;36.43;25.05;101634.06;4970078;28;20038;-86
2021/08/31 11:08:03;;;;;;;3.20;3.00;;;;;;;36.39;24.51;101621.78;4969974;28;20042;-86
2021/08/31 11:10:33;;;;;;;3.72;3.42;;;;;;;36.23;25.01;101618.91;4972424;28;20070;-89
2021/08/31 11:13:17;;;;;;;3.47;3.28;;;;;;;36.69;23.62;101613.28;4973973;28;20727;-88
2021/08/31 11:15:46;;;;;;;3.08;2.80;;;;;;;36.18;24.82;101618.53;4976723;28;20061;-89
2021/08/31 11:18:16;;;;;;;3.75;3.08;;;;;;;35.70;25.31;101623.41;4976321;28;20243;-89
2021/08/31 11:20:45;;;;;;;4.35;3.38;;;;;;;34.67;26.21;101620.78;4978961;28;20424;-85
2021/08/31 11:23:19;;;;;;;4.15;3.75;;;;;;;32.44;28.79;101624.75;4966962;28;20047;-88
2021/08/31 11:25:54;;;;;;;3.80;3.53;;;;;;;31.74;29.79;101624.31;4957089;28;20698;-89
2021/08/31 11:28:33;;;;;;;3.40;3.20;;;;;;;32.62;28.69;101627.66;4975401;28;20043;-92
2021/08/31 11:31:06;;;;;;;4.20;3.25;;;;;;;33.87;27.21;101619.22;4975597;28;20053;-87
2021/08/31 11:33:47;;;;;;;3.58;3.10;;;;;;;34.70;25.79;101623.22;4985832;28;20124;-90